Time;durP1;ratioP1;P1;durP2;ratioP2;P2;SDS_P1;SDS_P2;PMS_P1;PMS_P2;Temp;Humidity;BMP_temperature;BMP_pressure;BME280_temperature;BME280_humidity;BME280_pressure;Samples;Min_cycle;Max_cycle;Signal;HPM_P1;HPM_P2
2023/01/09 00:00:29;;;;;;;4.83;4.33;;;;;;;8.37;62.84;93995.00;5076881;28;20192;-82
2023/01/09 00:02:55;;;;;;;7.80;4.93;;;;;;;8.40;62.96;94010.78;5091303;28;20231;-82
2023/01/09 00:05:22;;;;;;;4.70;4.23;;;;;;;8.37;62.67;94018.88;5077882;28;20231;-82
2023/01/09 00:07:49;;;;;;;5.93;4.97;;;;;;;8.37;62.51;94023.22;5090986;28;20605;-82
2023/01/09 00:10:15;;;;;;;5.00;4.50;;;;;;;8.37;62.67;94039.38;5087667;28;20220;-82
2023/01/09 00:12:41;;;;;;;4.50;4.10;;;;;;;8.38;62.61;94048.66;5071504;28;20204;-82
2023/01/09 00:15:09;;;;;;;5.70;4.30;;;;;;;8.42;62.67;94051.63;5051427;28;20190;-82
2023/01/09 00:17:37;;;;;;;4.93;4.10;;;;;;;8.41;62.60;94044.91;5066341;28;20629;-82
2023/01/09 00:20:05;;;;;;;4.90;4.40;;;;;;;8.39;62.47;94050.22;5091239;28;20779;-82
2023/01/09 00:22:32;;;;;;;4.63;4.03;;;;;;;8.40;62.82;94040.75;5083903;28;20197;-82
2023/01/09 00:24:58;;;;;;;5.50;3.90;;;;;;;8.39;62.95;94037.41;5070091;28;20229;-82
2023/01/09 00:27:25;;;;;;;4.60;4.10;;;;;;;8.37;63.32;94051.41;5076505;28;20200;-82
2023/01/09 00:29:52;;;;;;;4.57;4.10;;;;;;;8.37;63.40;94048.84;5091416;28;20209;-82
2023/01/09 00:32:19;;;;;;;4.80;4.07;;;;;;;8.36;63.25;94042.16;5086304;28;20262;-82
2023/01/09 00:34:47;;;;;;;5.67;4.33;;;;;;;8.37;63.39;94041.16;5070590;28;20216;-82
2023/01/09 00:37:14;;;;;;;4.93;4.23;;;;;;;8.39;63.46;94034.06;5075314;28;20621;-82
2023/01/09 00:39:41;;;;;;;5.00;4.50;;;;;;;8.43;63.48;94042.94;5090677;28;20207;-82
2023/01/09 00:42:12;;;;;;;4.53;4.13;;;;;;;8.45;63.58;94036.63;5077717;28;20200;-82
2023/01/09 00:44:43;;;;;;;4.67;4.07;;;;;;;8.46;63.47;94027.94;5070900;28;20224;-82
2023/01/09 00:47:13;;;;;;;5.00;4.20;;;;;;;8.48;63.82;94041.31;5079603;28;20565;-82
2023/01/09 00:49:41;;;;;;;4.60;4.10;;;;;;;8.43;64.57;94045.50;5070332;28;20871;-82
2023/01/09 00:52:10;;;;;;;4.17;3.77;;;;;;;8.42;64.25;94042.16;5067641;28;20205;-82
2023/01/09 00:54:38;;;;;;;7.13;4.17;;;;;;;8.40;64.82;94041.56;5070431;28;20228;-82
2023/01/09 00:57:05;;;;;;;4.37;3.97;;;;;;;8.40;64.81;94038.19;5069537;28;20201;-82
2023/01/09 00:59:31;;;;;;;6.80;4.07;;;;;;;8.37;64.96;94031.69;5070273;28;20215;-82
2023/01/09 01:01:59;;;;;;;4.70;4.20;;;;;;;8.38;64.88;94033.28;5070227;28;20205;-82
2023/01/09 01:09:54;;;;;;;4.77;4.27;;;;;;;8.39;65.75;94022.03;5070593;28;20678;-82
2023/01/09 01:12:21;;;;;;;5.73;5.07;;;;;;;8.36;66.51;94011.38;5074957;28;20192;-82
2023/01/09 01:14:47;;;;;;;5.00;4.50;;;;;;;8.30;66.05;94026.53;5090387;28;20269;-82
2023/01/09 01:17:14;;;;;;;4.90;4.40;;;;;;;8.30;66.10;94036.00;5090023;28;20201;-82
2023/01/09 01:19:40;;;;;;;5.40;4.60;;;;;;;8.23;66.83;94025.00;5071984;28;20288;-82
2023/01/09 01:22:07;;;;;;;5.00;4.50;;;;;;;8.20;67.06;94020.25;5073155;28;20197;-82
2023/01/09 01:24:34;;;;;;;5.17;4.67;;;;;;;8.19;67.46;94028.94;5092390;28;20657;-82
2023/01/09 01:27:01;;;;;;;5.20;4.43;;;;;;;8.21;67.09;94019.28;5091552;28;20200;-82
2023/01/09 01:29:27;;;;;;;4.97;4.43;;;;;;;8.24;67.64;94006.84;5071765;28;20542;-82
2023/01/09 01:31:54;;;;;;;6.07;4.27;;;;;;;8.24;67.23;94006.84;5073337;28;20224;-82
2023/01/09 01:34:21;;;;;;;5.20;4.70;;;;;;;8.23;68.17;94015.53;5091754;28;20216;-82
2023/01/09 01:36:47;;;;;;;6.30;4.90;;;;;;;8.22;67.73;94016.50;5092442;28;20204;-82
2023/01/09 01:39:13;;;;;;;5.17;4.67;;;;;;;8.17;68.37;94013.75;5079658;28;20208;-82
2023/01/09 01:41:41;;;;;;;5.17;4.17;;;;;;;8.18;68.23;94019.66;5076380;28;20204;-82
2023/01/09 01:44:41;;;;;;;4.70;4.30;;;;;;;8.17;68.83;94016.31;5075129;28;20659;-82
2023/01/09 01:47:07;;;;;;;5.63;4.60;;;;;;;8.22;68.21;94025.97;5057595;28;20201;-82
2023/01/09 01:49:34;;;;;;;5.47;4.70;;;;;;;8.24;68.29;94018.88;5075965;28;20266;-82
2023/01/09 01:52:00;;;;;;;5.57;4.50;;;;;;;8.20;68.60;94013.38;5059976;28;20209;-82
2023/01/09 01:54:30;;;;;;;5.03;4.47;;;;;;;8.22;68.42;94005.47;5096889;28;20212;-82
2023/01/09 01:57:02;;;;;;;4.73;4.23;;;;;;;8.23;68.50;94007.84;5094798;28;20910;-82
2023/01/09 01:59:36;;;;;;;5.73;4.67;;;;;;;8.23;69.05;94004.47;5056394;28;20206;-82
2023/01/09 02:02:03;;;;;;;5.20;4.70;;;;;;;8.26;68.36;94011.78;5057303;28;20202;-82
2023/01/09 02:04:34;;;;;;;5.10;4.60;;;;;;;8.26;68.57;94006.66;5084381;28;20217;-82
2023/01/09 02:07:05;;;;;;;5.63;4.63;;;;;;;8.27;68.58;94001.28;5067566;28;20220;-82
2023/01/09 02:09:31;;;;;;;5.33;4.70;;;;;;;8.27;68.49;94009.00;5095225;28;20207;-82
2023/01/09 02:12:00;;;;;;;4.67;4.10;;;;;;;8.24;69.04;94022.22;5095694;28;20200;-82
2023/01/09 02:14:28;;;;;;;5.60;4.67;;;;;;;8.18;69.73;94017.09;5075152;28;20327;-82
2023/01/09 02:17:03;;;;;;;4.80;4.30;;;;;;;8.15;70.05;94017.50;5075727;28;20200;-82
2023/01/09 02:19:59;;;;;;;4.43;4.03;;;;;;;8.13;70.13;94016.91;5054536;28;20205;-82
2023/01/09 02:22:34;;;;;;;5.63;5.10;;;;;;;8.15;69.84;94013.16;5061427;28;20667;-82
2023/01/09 02:25:19;;;;;;;4.80;4.30;;;;;;;8.11;70.77;94016.31;5095155;28;20216;-82
2023/01/09 02:28:16;;;;;;;6.03;4.90;;;;;;;8.03;70.96;94014.78;5089124;28;20207;-82
2023/01/09 02:30:49;;;;;;;5.27;4.77;;;;;;;8.07;70.84;94010.84;5080164;28;20279;-82
2023/01/09 02:33:46;;;;;;;5.00;4.50;;;;;;;8.16;70.86;94013.97;5095007;28;20645;-82
2023/01/09 02:36:22;;;;;;;5.17;4.67;;;;;;;8.16;70.68;94014.75;5067987;28;20280;-82
2023/01/09 02:38:59;;;;;;;5.13;4.63;;;;;;;8.18;70.42;94015.34;5075054;28;20290;-82
2023/01/09 02:41:34;;;;;;;4.83;4.37;;;;;;;8.20;70.46;94018.50;5086665;28;20196;-82
2023/01/09 02:44:16;;;;;;;4.67;4.27;;;;;;;8.22;71.19;94015.72;5093064;28;20215;-82
2023/01/09 02:46:44;;;;;;;4.57;4.10;;;;;;;8.22;71.06;94008.81;5095602;28;20311;-82
2023/01/09 02:49:11;;;;;;;5.37;4.33;;;;;;;8.21;71.47;94009.81;5075515;28;20204;-82
2023/01/09 02:51:46;;;;;;;4.97;4.23;;;;;;;8.18;72.17;93992.25;5073876;28;20197;-82
2023/01/09 02:54:26;;;;;;;5.07;4.10;;;;;;;8.15;72.82;93986.75;5074309;28;20703;-82
2023/01/09 02:57:17;;;;;;;4.33;3.93;;;;;;;8.05;73.79;93978.69;5073726;28;20196;-82
2023/01/09 02:59:58;;;;;;;4.27;3.87;;;;;;;8.01;74.35;93990.31;5055481;28;20205;-82
2023/01/09 03:02:40;;;;;;;4.23;3.83;;;;;;;8.02;73.78;93997.03;5078306;28;20283;-82
2023/01/09 03:05:11;;;;;;;3.80;3.40;;;;;;;8.06;73.71;93999.00;5073597;28;20235;-82
2023/01/09 03:07:42;;;;;;;3.00;2.80;;;;;;;8.14;72.98;94003.91;5093553;28;20196;-82
2023/01/09 03:10:17;;;;;;;4.07;3.27;;;;;;;8.19;72.58;94003.31;5094582;28;20211;-83
2023/01/09 03:12:46;;;;;;;3.30;3.00;;;;;;;8.22;73.37;94005.47;5074599;28;20200;-82
2023/01/09 03:15:15;;;;;;;3.67;2.93;;;;;;;8.25;72.32;94005.06;5074579;28;20197;-82
2023/01/09 03:17:50;;;;;;;4.53;3.10;;;;;;;8.26;72.87;94004.09;5058190;28;20196;-82
2023/01/09 03:20:20;;;;;;;4.07;2.90;;;;;;;8.27;72.82;94006.44;5074178;28;20207;-82
2023/01/09 03:22:53;;;;;;;3.83;2.87;;;;;;;8.25;73.80;93992.25;5054815;28;20205;-82
2023/01/09 03:25:20;;;;;;;3.07;2.77;;;;;;;8.20;74.35;93999.75;5058323;28;20212;-83
2023/01/09 03:27:47;;;;;;;3.20;2.90;;;;;;;8.20;74.49;93992.84;5073760;28;20234;-82
2023/01/09 03:30:14;;;;;;;2.87;2.60;;;;;;;8.23;74.37;94001.91;5074432;28;20227;-82
2023/01/09 03:32:40;;;;;;;3.40;2.80;;;;;;;8.25;74.37;93999.94;5094328;28;20226;-82
2023/01/09 03:35:09;;;;;;;3.60;2.90;;;;;;;8.21;74.72;94003.91;5093155;28;20206;-82
2023/01/09 03:37:35;;;;;;;3.33;2.87;;;;;;;8.22;74.70;94008.03;5072784;28;20683;-82
2023/01/09 03:40:02;;;;;;;3.10;2.70;;;;;;;8.23;74.38;94005.28;5072533;28;20215;-82
2023/01/09 03:42:28;;;;;;;3.20;2.90;;;;;;;8.25;74.46;94010.19;5089913;28;20326;-82
2023/01/09 03:44:55;;;;;;;3.23;2.90;;;;;;;8.25;74.77;94005.06;5093067;28;20239;-82
2023/01/09 03:47:21;;;;;;;2.60;2.40;;;;;;;8.25;74.84;94008.44;5076528;28;20641;-82
2023/01/09 03:49:47;;;;;;;3.27;2.97;;;;;;;8.25;74.72;94000.75;5072418;28;20203;-82
2023/01/09 03:52:15;;;;;;;3.17;2.87;;;;;;;8.25;74.83;93987.13;5074622;28;20213;-82
2023/01/09 03:54:42;;;;;;;3.40;2.90;;;;;;;8.25;75.05;94000.75;5085914;28;20242;-82
2023/01/09 03:57:08;;;;;;;3.93;2.67;;;;;;;8.26;75.22;94004.09;5080199;28;20200;-82
2023/01/09 03:59:34;;;;;;;2.77;2.57;;;;;;;8.23;75.98;94001.91;5058477;28;20201;-82
2023/01/09 04:02:01;;;;;;;3.80;3.03;;;;;;;8.20;76.22;94004.88;5053892;28;20692;-82
2023/01/09 04:04:27;;;;;;;3.00;2.70;;;;;;;8.20;75.99;94007.44;5071074;28;20769;-82
2023/01/09 04:06:54;;;;;;;3.03;2.73;;;;;;;8.16;76.84;94007.06;5072833;28;20232;-82
2023/01/09 04:09:21;;;;;;;2.60;2.40;;;;;;;8.18;76.53;94010.22;5089272;28;20208;-82
2023/01/09 04:11:48;;;;;;;3.50;3.10;;;;;;;8.16;77.78;94001.94;5093161;28;20843;-82
2023/01/09 04:14:15;;;;;;;2.63;2.43;;;;;;;8.16;77.76;94004.50;5077536;28;20227;-82
2023/01/09 04:16:41;;;;;;;2.70;2.50;;;;;;;8.11;78.61;94008.63;5072547;28;20208;-82
2023/01/09 04:19:08;;;;;;;2.70;2.50;;;;;;;8.10;79.99;94019.88;5087318;28;20234;-82
2023/01/09 04:21:34;;;;;;;2.87;2.20;;;;;;;8.01;80.28;94027.00;5089362;28;20258;-82
2023/01/09 04:24:01;;;;;;;2.63;2.40;;;;;;;8.02;80.20;94026.00;5071648;28;20220;-82
2023/01/09 04:26:29;;;;;;;2.43;2.23;;;;;;;8.01;81.19;94029.56;5074574;28;20246;-82
2023/01/09 04:28:56;;;;;;;1.80;1.70;;;;;;;7.99;81.18;94041.78;5092668;28;20357;-82
2023/01/09 04:31:22;;;;;;;1.97;1.77;;;;;;;8.00;81.46;94042.56;5091870;28;20207;-82
2023/01/09 04:33:49;;;;;;;2.47;1.80;;;;;;;8.04;81.61;94054.00;5073724;28;20221;-82
2023/01/09 04:36:15;;;;;;;1.40;1.30;;;;;;;8.04;82.08;94041.97;5073292;28;20200;-82
2023/01/09 04:38:41;;;;;;;1.67;1.57;;;;;;;8.11;81.85;94047.88;5063338;28;20330;-82
2023/01/09 04:41:08;;;;;;;1.17;1.10;;;;;;;8.14;81.94;94064.63;5072760;28;20208;-82
2023/01/09 04:43:36;;;;;;;0.80;0.80;;;;;;;8.11;82.95;94073.50;5081702;28;20207;-82
2023/01/09 04:46:02;;;;;;;1.43;1.23;;;;;;;8.13;82.57;94079.22;5093377;28;20785;-82
2023/01/09 04:48:29;;;;;;;1.17;1.10;;;;;;;8.23;81.95;94076.25;5088073;28;20203;-82
2023/01/09 04:50:55;;;;;;;1.57;1.20;;;;;;;8.21;82.12;94083.38;5087438;28;20201;-82
2023/01/09 04:53:22;;;;;;;1.27;1.17;;;;;;;8.22;82.04;94078.03;5081980;28;20220;-82
2023/01/09 04:55:48;;;;;;;1.23;0.97;;;;;;;8.28;81.75;94087.47;5072470;28;20663;-82
2023/01/09 04:58:14;;;;;;;1.37;1.00;;;;;;;8.32;81.69;94095.59;5073555;28;20196;-83
2023/01/09 05:00:42;;;;;;;1.03;0.80;;;;;;;8.32;81.87;94096.38;5073321;28;20656;-82
2023/01/09 05:03:09;;;;;;;0.90;0.90;;;;;;;8.31;81.65;94091.44;5072307;28;20911;-82
2023/01/09 05:05:35;;;;;;;0.80;0.80;;;;;;;8.28;81.60;94104.63;5071966;28;20201;-82
2023/01/09 05:08:01;;;;;;;0.70;0.70;;;;;;;8.36;80.65;94108.81;5071069;28;20216;-82
2023/01/09 05:10:28;;;;;;;0.67;0.67;;;;;;;8.37;80.75;94108.63;5057831;28;20242;-83
2023/01/09 05:12:54;;;;;;;0.50;0.50;;;;;;;8.41;80.19;94124.41;5074013;28;20208;-82
2023/01/09 05:15:21;;;;;;;0.50;0.50;;;;;;;8.40;80.28;94122.81;5071156;28;20193;-82
2023/01/09 05:17:48;;;;;;;0.60;0.60;;;;;;;8.39;79.73;94144.31;5074580;28;20205;-83
2023/01/09 05:20:15;;;;;;;0.50;0.50;;;;;;;8.36;80.21;94158.31;5076837;28;20197;-83
2023/01/09 05:22:41;;;;;;;0.43;0.43;;;;;;;8.41;79.60;94145.72;5086369;28;20219;-83
2023/01/09 05:25:08;;;;;;;0.97;0.50;;;;;;;8.41;79.06;94158.53;5087281;28;20220;-82
2023/01/09 05:27:35;;;;;;;0.50;0.50;;;;;;;8.46;79.34;94168.19;5087866;28;20224;-82
2023/01/09 05:30:01;;;;;;;0.50;0.50;;;;;;;8.43;78.96;94176.28;5103586;28;20192;-82
2023/01/09 05:32:27;;;;;;;0.50;0.50;;;;;;;8.40;78.92;94167.22;5105074;28;20200;-82
2023/01/09 05:34:55;;;;;;;0.50;0.50;;;;;;;8.41;79.08;94180.81;5100036;28;20242;-82
2023/01/09 05:37:22;;;;;;;0.60;0.60;;;;;;;8.50;78.43;94195.00;5090090;28;20192;-82
2023/01/09 05:39:48;;;;;;;0.50;0.50;;;;;;;8.54;78.29;94199.56;5088047;28;20197;-82
2023/01/09 05:42:14;;;;;;;2.20;0.60;;;;;;;8.46;77.87;94193.84;5087544;28;20228;-82
2023/01/09 05:44:41;;;;;;;0.47;0.47;;;;;;;8.36;77.26;94193.44;5082369;28;20599;-82
2023/01/09 05:47:07;;;;;;;0.83;0.50;;;;;;;8.34;76.89;94198.75;5079934;28;20275;-83
2023/01/09 05:49:34;;;;;;;0.50;0.50;;;;;;;8.28;76.96;94200.28;5078441;28;20209;-82
2023/01/09 05:52:01;;;;;;;0.50;0.50;;;;;;;8.29;76.91;94208.78;5079525;28;20204;-82
2023/01/09 05:54:28;;;;;;;0.50;0.50;;;;;;;8.34;75.90;94213.34;5077511;28;20221;-82
2023/01/09 05:56:54;;;;;;;0.40;0.40;;;;;;;8.30;75.13;94212.91;5077764;28;20236;-82
2023/01/09 05:59:21;;;;;;;0.50;0.50;;;;;;;8.28;74.78;94231.06;5081551;28;20196;-82
2023/01/09 06:01:47;;;;;;;0.40;0.40;;;;;;;8.21;74.39;94232.06;5081950;28;20638;-82
2023/01/09 06:04:14;;;;;;;1.40;0.50;;;;;;;8.20;73.40;94215.09;5080032;28;20242;-82
2023/01/09 06:06:40;;;;;;;0.60;0.60;;;;;;;8.19;73.59;94205.81;5080366;28;20225;-83
2023/01/09 06:09:08;;;;;;;0.50;0.50;;;;;;;8.27;73.20;94218.47;5080279;28;20626;-82
2023/01/09 06:11:37;;;;;;;0.57;0.57;;;;;;;8.28;72.29;94231.06;5080768;28;20204;-82
2023/01/09 06:14:03;;;;;;;0.37;0.37;;;;;;;8.27;72.15;94239.72;5080727;28;20220;-82
2023/01/09 06:16:33;;;;;;;0.40;0.40;;;;;;;8.32;71.56;94239.19;5080718;28;20193;-82
2023/01/09 06:18:59;;;;;;;0.40;0.40;;;;;;;8.26;70.14;94242.53;5079149;28;20209;-82
2023/01/09 06:21:28;;;;;;;0.50;0.50;;;;;;;8.25;69.58;94246.06;5078801;28;20668;-82
2023/01/09 06:23:57;;;;;;;0.50;0.50;;;;;;;8.22;68.44;94252.38;5080139;28;20432;-82
2023/01/09 06:26:25;;;;;;;0.40;0.40;;;;;;;8.14;68.18;94262.00;5080663;28;20207;-83
2023/01/09 06:28:54;;;;;;;1.17;0.50;;;;;;;8.08;68.46;94273.81;5080629;28;20204;-82
2023/01/09 06:31:20;;;;;;;0.70;0.60;;;;;;;8.11;68.71;94270.88;5080719;28;20569;-82
2023/01/09 06:33:47;;;;;;;0.40;0.40;;;;;;;8.04;68.25;94275.19;5080552;28;20221;-82
2023/01/09 06:36:16;;;;;;;0.60;0.60;;;;;;;8.10;68.60;94276.97;5077485;28;20197;-83
2023/01/09 06:38:43;;;;;;;0.70;0.60;;;;;;;8.05;68.55;94291.38;5079562;28;20231;-82
2023/01/09 06:41:09;;;;;;;0.40;0.40;;;;;;;8.01;68.95;94292.72;5078995;28;20197;-85
2023/01/09 06:43:37;;;;;;;0.50;0.50;;;;;;;7.97;68.90;94290.53;5077236;28;20223;-82
2023/01/09 06:46:05;;;;;;;0.50;0.47;;;;;;;7.89;69.56;94295.03;5078242;28;20266;-82
2023/01/09 06:48:31;;;;;;;0.40;0.40;;;;;;;7.89;69.79;94293.25;5078118;28;20727;-82
2023/01/09 06:50:58;;;;;;;0.40;0.40;;;;;;;7.90;70.29;94319.69;5077402;28;20200;-83
2023/01/09 06:53:27;;;;;;;0.40;0.40;;;;;;;7.78;70.74;94313.53;5078583;28;20217;-83
2023/01/09 06:55:54;;;;;;;0.40;0.40;;;;;;;7.73;71.24;94313.31;5079707;28;20204;-82
2023/01/09 06:58:20;;;;;;;0.40;0.40;;;;;;;7.79;71.25;94310.00;5079550;28;20197;-82
2023/01/09 07:00:48;;;;;;;0.57;0.43;;;;;;;7.76;71.35;94310.38;5080500;28;20244;-83
2023/01/09 07:03:18;;;;;;;0.40;0.40;;;;;;;7.79;71.53;94315.91;5081274;28;20240;-82
2023/01/09 07:05:45;;;;;;;0.37;0.37;;;;;;;7.83;70.93;94326.56;5079972;28;20211;-82
2023/01/09 07:08:13;;;;;;;0.67;0.40;;;;;;;7.76;71.30;94333.41;5080632;28;20229;-82
2023/01/09 07:10:40;;;;;;;1.13;0.40;;;;;;;7.80;71.27;94337.19;5080539;28;20197;-83
2023/01/09 07:13:06;;;;;;;0.40;0.40;;;;;;;7.80;71.15;94345.66;5079811;28;20225;-85
2023/01/09 07:15:33;;;;;;;0.37;0.37;;;;;;;7.81;70.97;94362.63;5079351;28;20196;-82
2023/01/09 07:18:01;;;;;;;0.40;0.40;;;;;;;7.75;71.01;94350.56;5079452;28;20673;-85
2023/01/09 07:20:28;;;;;;;0.40;0.40;;;;;;;7.78;70.62;94360.44;5079460;28;20209;-85
2023/01/09 07:22:54;;;;;;;0.40;0.40;;;;;;;7.72;70.46;94363.75;5079219;28;20247;-82
2023/01/09 07:25:21;;;;;;;0.30;0.30;;;;;;;7.73;70.10;94372.22;5079546;28;20214;-82
2023/01/09 07:27:50;;;;;;;0.30;0.30;;;;;;;7.66;70.30;94376.53;5080071;28;20228;-83
2023/01/09 07:30:17;;;;;;;0.70;0.60;;;;;;;7.73;70.33;94390.94;5079755;28;20216;-82
2023/01/09 07:32:43;;;;;;;3.77;2.50;;;;;;;7.71;69.90;94389.53;5078596;28;20603;-83
2023/01/09 07:35:11;;;;;;;0.70;0.70;;;;;;;7.72;70.45;94396.25;5077702;28;20217;-82
2023/01/09 07:37:38;;;;;;;1.83;0.60;;;;;;;7.69;70.71;94414.59;5078629;28;20227;-83
2023/01/09 07:40:08;;;;;;;0.50;0.50;;;;;;;7.74;71.31;94422.47;5078881;28;20201;-83
2023/01/09 07:42:34;;;;;;;0.40;0.40;;;;;;;7.81;71.77;94431.00;5077824;28;20201;-82
2023/01/09 07:45:01;;;;;;;0.43;0.43;;;;;;;7.82;73.39;94427.47;5078761;28;20221;-82
2023/01/09 07:47:27;;;;;;;3.30;0.53;;;;;;;7.82;73.42;94432.59;5078766;28;20240;-82
2023/01/09 07:49:54;;;;;;;0.50;0.50;;;;;;;7.80;74.42;94425.09;5077069;28;20216;-83
2023/01/09 07:52:21;;;;;;;0.30;0.30;;;;;;;7.84;74.56;94426.31;5078109;28;20205;-82
2023/01/09 07:54:48;;;;;;;0.50;0.50;;;;;;;7.79;75.46;94431.19;5078417;28;20275;-82
2023/01/09 07:57:15;;;;;;;0.40;0.40;;;;;;;7.71;76.19;94433.09;5077345;28;20207;-83
2023/01/09 07:59:41;;;;;;;0.60;0.50;;;;;;;7.74;76.74;94432.72;5077959;28;20204;-82
2023/01/09 08:02:08;;;;;;;0.40;0.40;;;;;;;7.75;77.34;94437.66;5078951;28;20197;-82
2023/01/09 08:04:35;;;;;;;0.40;0.40;;;;;;;7.75;78.16;94440.22;5077840;28;20220;-83
2023/01/09 08:07:02;;;;;;;1.30;0.80;;;;;;;7.81;78.06;94457.41;5077376;28;20221;-82
2023/01/09 08:09:30;;;;;;;0.43;0.43;;;;;;;7.86;78.19;94460.22;5077296;28;20201;-83
2023/01/09 08:11:59;;;;;;;0.87;0.50;;;;;;;7.83;78.70;94465.72;5056065;28;20365;-82
2023/01/09 08:14:26;;;;;;;0.40;0.40;;;;;;;7.79;79.08;94461.94;5057568;28;20767;-82
2023/01/09 08:16:52;;;;;;;0.40;0.40;;;;;;;7.73;78.96;94459.31;5057793;28;20206;-82
2023/01/09 08:19:18;;;;;;;0.53;0.53;;;;;;;7.80;79.00;94462.72;5056861;28;20639;-82
2023/01/09 08:21:45;;;;;;;0.50;0.50;;;;;;;7.80;78.24;94458.41;5057015;28;20216;-82
2023/01/09 08:24:14;;;;;;;1.27;0.50;;;;;;;7.69;77.94;94461.50;5057527;28;20217;-82
2023/01/09 08:26:43;;;;;;;5.53;4.77;;;;;;;7.71;77.42;94468.97;5056948;28;20201;-85
2023/01/09 08:29:10;;;;;;;1.77;1.37;;;;;;;7.69;76.99;94469.16;5057011;28;20213;-84
2023/01/09 08:31:37;;;;;;;3.10;0.70;;;;;;;7.62;77.04;94471.69;5056653;28;20208;-82
2023/01/09 08:34:03;;;;;;;1.33;0.60;;;;;;;7.52;75.71;94478.06;5057764;28;20271;-82
2023/01/09 08:36:29;;;;;;;2.13;0.70;;;;;;;7.60;75.21;94488.19;5057407;28;20208;-82
2023/01/09 08:38:56;;;;;;;1.10;0.70;;;;;;;7.61;74.46;94484.66;5072806;28;20943;-82
2023/01/09 08:47:07;;;;;;;0.93;0.63;;;;;;;7.53;68.37;94497.59;5077870;28;20264;-82
2023/01/09 08:49:35;;;;;;;2.77;0.73;;;;;;;7.48;68.02;94492.25;5081373;28;20568;-82
2023/01/09 08:52:02;;;;;;;0.73;0.70;;;;;;;7.53;67.07;94490.69;5080759;28;20306;-82
2023/01/09 08:54:28;;;;;;;0.67;0.60;;;;;;;7.50;66.56;94505.66;5081940;28;20712;-82
2023/01/09 08:56:55;;;;;;;0.57;0.50;;;;;;;7.49;65.50;94517.69;5081312;28;20197;-82
2023/01/09 08:59:23;;;;;;;1.40;0.70;;;;;;;7.56;65.76;94505.69;5081536;28;20197;-82
2023/01/09 09:01:49;;;;;;;2.13;0.80;;;;;;;7.61;65.54;94495.69;5080590;28;20207;-82
2023/01/09 09:04:15;;;;;;;10.23;1.10;;;;;;;7.64;64.92;94502.22;5081125;28;20213;-82
2023/01/09 09:06:42;;;;;;;4.17;1.23;;;;;;;7.65;64.21;94498.69;5082038;28;20211;-84
2023/01/09 09:09:08;;;;;;;0.87;0.60;;;;;;;7.52;63.61;94512.16;5079768;28;20231;-85
2023/01/09 09:11:35;;;;;;;0.97;0.77;;;;;;;7.51;63.76;94515.69;5079486;28;20346;-85
2023/01/09 09:15:11;;;;;;;1.80;0.60;;;;;;;7.53;63.25;94500.94;5080226;28;20220;-85
2023/01/09 09:16:51;;;;;;;3.83;1.03;;;;;;;7.50;62.79;94491.09;5080648;28;20224;-82
2023/01/09 09:19:17;;;;;;;0.83;0.50;;;;;;;7.52;62.27;94486.56;5080365;28;20201;-82
2023/01/09 09:21:44;;;;;;;1.13;0.70;;;;;;;7.60;61.73;94489.00;5080243;28;20826;-82
2023/01/09 09:24:10;;;;;;;3.50;0.90;;;;;;;7.68;62.07;94470.16;5080806;28;20224;-82
2023/01/09 09:26:37;;;;;;;1.60;0.57;;;;;;;7.58;61.39;94482.47;5081325;28;20618;-83
2023/01/09 09:29:03;;;;;;;2.67;0.70;;;;;;;7.55;60.68;94490.50;5080996;28;20589;-82
2023/01/09 09:31:30;;;;;;;1.57;0.70;;;;;;;7.50;60.61;94490.28;5082404;28;20203;-82
2023/01/09 09:33:58;;;;;;;0.80;0.70;;;;;;;7.47;60.04;94491.44;5081045;28;20224;-82
2023/01/09 09:36:24;;;;;;;2.00;0.93;;;;;;;7.60;60.42;94490.75;5081176;28;20571;-83
2023/01/09 09:38:51;;;;;;;4.67;0.90;;;;;;;7.78;60.64;94498.78;5080428;28;20246;-82
2023/01/09 09:44:48;;;;;;;4.10;0.93;;;;;;;7.54;60.19;94507.66;5080232;28;20257;-82
2023/01/09 09:47:29;;;;;;;1.40;0.87;;;;;;;7.52;60.69;94521.63;5079876;28;20197;-82
2023/01/09 09:50:10;;;;;;;1.80;0.80;;;;;;;7.58;60.81;94503.75;5079980;28;20719;-81
2023/01/09 09:52:45;;;;;;;2.17;0.90;;;;;;;7.59;60.72;94512.22;5059793;28;20213;-82
2023/01/09 09:55:18;;;;;;;1.33;0.70;;;;;;;7.51;61.31;94502.88;5059898;28;20217;-82
2023/01/09 09:57:47;;;;;;;3.83;1.00;;;;;;;7.48;61.78;94521.22;5059361;28;20212;-82
2023/01/09 10:00:18;;;;;;;5.23;1.07;;;;;;;7.45;61.67;94508.75;5079482;28;20258;-85
2023/01/09 10:02:49;;;;;;;2.23;0.80;;;;;;;7.46;61.52;94507.00;5079399;28;20204;-83
2023/01/09 10:05:23;;;;;;;8.57;1.67;;;;;;;7.55;61.96;94526.38;5079350;28;20200;-82
2023/01/09 10:07:52;;;;;;;1.90;1.27;;;;;;;7.61;61.04;94520.53;5079148;28;20584;-83
2023/01/09 10:10:27;;;;;;;3.10;0.63;;;;;;;7.40;61.30;94500.84;5079227;28;20197;-82
2023/01/09 10:12:55;;;;;;;2.33;0.70;;;;;;;7.50;61.15;94509.00;5078378;28;20204;-82
2023/01/09 10:15:34;;;;;;;2.60;0.80;;;;;;;7.65;60.76;94503.03;5079100;28;20263;-82
2023/01/09 10:18:13;;;;;;;1.10;0.73;;;;;;;7.74;60.52;94502.69;5079176;28;20596;-82
2023/01/09 10:21:01;;;;;;;2.03;0.80;;;;;;;7.76;60.41;94494.81;5078857;28;20204;-82
2023/01/09 10:24:03;;;;;;;2.40;0.93;;;;;;;7.71;60.11;94497.94;5078082;28;20242;-83
2023/01/09 10:26:39;;;;;;;1.00;0.80;;;;;;;7.77;59.82;94488.72;5078654;28;20221;-83
2023/01/09 10:29:23;;;;;;;6.13;1.40;;;;;;;7.83;59.79;94488.00;5077839;28;20228;-82
2023/01/09 10:32:03;;;;;;;0.63;0.60;;;;;;;7.75;59.24;94488.91;5078502;28;20694;-82
2023/01/09 10:34:42;;;;;;;6.10;1.87;;;;;;;7.76;59.62;94487.13;5069314;28;20251;-82
2023/01/09 10:37:13;;;;;;;5.10;1.23;;;;;;;7.79;59.25;94487.56;5078024;28;20205;-83
2023/01/09 10:39:45;;;;;;;2.30;0.93;;;;;;;7.90;59.15;94501.63;5076396;28;20886;-82
2023/01/09 10:42:18;;;;;;;1.00;0.70;;;;;;;7.90;58.81;94499.06;5078615;28;20231;-82
2023/01/09 10:44:53;;;;;;;1.17;0.83;;;;;;;7.93;58.74;94496.91;5076721;28;20268;-82
2023/01/09 10:47:25;;;;;;;0.97;0.80;;;;;;;7.97;58.52;94505.03;5077169;28;20224;-83
2023/01/09 10:49:54;;;;;;;1.83;0.70;;;;;;;8.01;58.42;94505.47;5077343;28;20193;-83
2023/01/09 10:52:28;;;;;;;2.30;1.03;;;;;;;8.03;58.57;94499.16;5078638;28;20209;-82
2023/01/09 10:54:56;;;;;;;1.40;0.67;;;;;;;8.11;58.25;94504.13;5078108;28;20726;-82
2023/01/09 10:57:37;;;;;;;1.57;1.33;;;;;;;8.06;58.33;94500.56;5078524;28;20211;-83
2023/01/09 11:00:04;;;;;;;10.57;2.10;;;;;;;8.01;57.71;94493.44;5078468;28;20676;-83
2023/01/09 11:02:34;;;;;;;17.47;3.80;;;;;;;8.01;57.84;94490.06;5077539;28;20247;-83
2023/01/09 11:05:00;;;;;;;5.77;1.33;;;;;;;8.04;57.45;94492.28;5076860;28;20220;-82
2023/01/09 11:07:32;;;;;;;3.20;1.13;;;;;;;8.03;57.22;94488.13;5076251;28;20204;-83
2023/01/09 11:10:01;;;;;;;9.50;1.30;;;;;;;8.10;57.40;94497.41;5076190;28;20204;-82
2023/01/09 11:12:29;;;;;;;2.83;1.23;;;;;;;8.06;57.23;94492.88;5076326;28;20229;-82
2023/01/09 11:14:55;;;;;;;4.57;1.33;;;;;;;8.08;57.67;94498.59;5076287;28;20217;-82
2023/01/09 11:17:26;;;;;;;5.50;1.47;;;;;;;8.13;57.06;94501.38;5075754;28;20205;-82
2023/01/09 11:20:04;;;;;;;2.23;0.90;;;;;;;8.08;57.01;94489.13;5076062;28;20201;-82
2023/01/09 11:22:43;;;;;;;1.87;0.80;;;;;;;8.22;57.12;94490.81;5076207;28;20247;-82
2023/01/09 11:25:13;;;;;;;5.27;1.23;;;;;;;8.17;56.74;94490.56;5076264;28;20232;-82
2023/01/09 11:27:39;;;;;;;1.70;0.80;;;;;;;8.15;56.67;94497.66;5074714;28;20212;-82
2023/01/09 11:30:25;;;;;;;2.30;0.70;;;;;;;8.12;56.76;94492.09;5075901;28;20196;-83
2023/01/09 11:32:51;;;;;;;1.43;0.83;;;;;;;8.13;56.62;94491.13;5075649;28;20668;-83
2023/01/09 11:35:22;;;;;;;0.70;0.70;;;;;;;8.14;56.45;94496.06;5075391;28;20203;-82
2023/01/09 11:38:01;;;;;;;2.43;0.70;;;;;;;8.15;56.31;94494.31;5075588;28;20674;-82
2023/01/09 11:40:29;;;;;;;1.60;0.93;;;;;;;8.10;56.29;94501.75;5075484;28;20196;-82
2023/01/09 11:43:14;;;;;;;5.83;1.20;;;;;;;8.13;56.22;94483.44;5075088;28;20205;-82
2023/01/09 11:45:45;;;;;;;3.83;0.90;;;;;;;8.25;56.41;94495.56;5075793;28;20207;-83
2023/01/09 11:48:28;;;;;;;2.77;0.90;;;;;;;8.28;56.21;94489.25;5074687;28;20320;-82
2023/01/09 11:50:57;;;;;;;1.27;0.70;;;;;;;8.30;55.48;94482.94;5075283;28;20200;-81
2023/01/09 11:53:25;;;;;;;2.27;0.87;;;;;;;8.29;55.48;94491.63;5074944;28;20242;-83
2023/01/09 11:55:59;;;;;;;2.50;1.10;;;;;;;8.17;55.38;94485.44;5073784;28;20223;-82
2023/01/09 11:58:30;;;;;;;4.93;3.43;;;;;;;8.34;55.44;94480.81;5074129;28;20295;-82
2023/01/09 12:01:05;;;;;;;5.57;1.30;;;;;;;8.44;55.24;94477.94;5073465;28;20273;-82
2023/01/09 12:04:02;;;;;;;3.57;0.97;;;;;;;8.53;54.77;94481.91;5075848;28;20759;-82
2023/01/09 12:06:46;;;;;;;4.07;0.90;;;;;;;8.46;55.12;94484.47;5075361;28;20208;-82